Time;durP1;ratioP1;P1;durP2;ratioP2;P2;SDS_P1;SDS_P2;PMS_P1;PMS_P2;Temp;Humidity;BMP_temperature;BMP_pressure;BME280_temperature;BME280_humidity;BME280_pressure;Samples;Min_cycle;Max_cycle;Signal;HPM_P1;HPM_P2
2022/09/08 00:01:40;;;;;;;1.30;1.20;;;25.90;53.20;;;;;;5085574;28;46397;-69
2022/09/08 00:04:07;;;;;;;1.40;1.30;;;25.90;53.40;;;;;;5085123;28;45260;-69
2022/09/08 00:06:34;;;;;;;1.67;1.30;;;25.80;53.40;;;;;;5085359;28;45240;-69
2022/09/08 00:09:01;;;;;;;1.45;1.30;;;25.80;53.40;;;;;;5085591;28;45432;-69
2022/09/08 00:11:30;;;;;;;1.55;1.40;;;25.80;53.50;;;;;;5088559;28;45372;-69
2022/09/08 00:13:57;;;;;;;1.40;1.30;;;25.80;53.40;;;;;;5088494;28;45182;-69
2022/09/08 00:16:24;;;;;;;1.23;1.15;;;25.70;53.40;;;;;;5088812;28;45239;-69
2022/09/08 00:18:52;;;;;;;1.20;1.10;;;25.70;53.30;;;;;;5088935;28;45299;-69
2022/09/08 00:21:19;;;;;;;1.35;1.10;;;25.70;53.50;;;;;;5088393;28;46205;-69
2022/09/08 00:23:46;;;;;;;1.45;1.33;;;25.70;53.60;;;;;;5088259;28;45609;-69
2022/09/08 00:26:13;;;;;;;1.50;1.30;;;25.70;53.60;;;;;;5088449;28;45194;-69
2022/09/08 00:28:40;;;;;;;2.40;1.30;;;25.70;53.50;;;;;;5088837;28;45185;-68
2022/09/08 00:31:06;;;;;;;1.33;1.23;;;25.70;53.40;;;;;;5088040;28;46669;-69
2022/09/08 00:33:34;;;;;;;1.20;1.10;;;25.70;53.40;;;;;;5088311;28;45312;-69
2022/09/08 00:36:03;;;;;;;1.77;1.10;;;25.70;53.50;;;;;;5088489;28;45264;-69
2022/09/08 00:38:30;;;;;;;1.40;1.00;;;25.70;53.30;;;;;;5088530;28;45132;-69
2022/09/08 00:40:57;;;;;;;1.45;1.33;;;25.70;53.50;;;;;;5088084;28;45308;-68
2022/09/08 00:43:31;;;;;;;1.13;1.00;;;25.60;53.30;;;;;;5087951;28;45313;-69
2022/09/08 00:45:59;;;;;;;1.30;1.20;;;25.60;53.40;;;;;;5088298;28;45361;-69
2022/09/08 00:48:26;;;;;;;1.10;1.00;;;25.60;53.60;;;;;;5088394;28;45304;-69
2022/09/08 00:50:53;;;;;;;1.55;1.20;;;25.60;53.60;;;;;;5087682;28;47598;-69
2022/09/08 00:53:21;;;;;;;1.02;0.98;;;25.60;53.50;;;;;;5088232;28;45135;-69
2022/09/08 00:55:48;;;;;;;1.50;1.35;;;25.60;53.40;;;;;;5088064;28;45310;-69
2022/09/08 00:58:15;;;;;;;1.60;1.08;;;25.60;53.50;;;;;;5088136;28;45441;-68
2022/09/08 01:00:42;;;;;;;1.25;1.15;;;25.60;53.50;;;;;;5087896;28;46393;-69
2022/09/08 01:03:09;;;;;;;1.45;1.27;;;25.50;53.40;;;;;;5087670;28;45231;-69
2022/09/08 01:05:39;;;;;;;1.30;1.20;;;25.50;53.50;;;;;;5088087;28;45140;-68
2022/09/08 01:13:43;;;;;;;1.55;1.00;;;25.50;53.60;;;;;;5087908;28;45304;-69
2022/09/08 01:16:10;;;;;;;1.13;1.02;;;25.50;53.50;;;;;;5087914;28;45320;-69
2022/09/08 01:18:37;;;;;;;1.13;1.10;;;25.50;53.50;;;;;;5087977;28;45261;-69
2022/09/08 01:21:08;;;;;;;1.10;0.93;;;25.50;53.60;;;;;;5086653;27;46511;-69
2022/09/08 01:24:06;;;;;;;1.02;1.00;;;25.50;53.50;;;;;;5087493;28;45332;-68
2022/09/08 01:26:46;;;;;;;1.30;0.90;;;25.50;54.30;;;;;;5087699;28;45200;-69
2022/09/08 01:29:14;;;;;;;0.80;0.80;;;25.50;53.50;;;;;;5087872;28;45492;-69
2022/09/08 01:31:42;;;;;;;0.95;0.95;;;25.40;53.50;;;;;;5087304;28;46680;-69
2022/09/08 01:34:09;;;;;;;1.00;1.00;;;25.40;53.50;;;;;;5087615;28;45254;-69
2022/09/08 01:36:36;;;;;;;2.05;1.17;;;25.40;53.70;;;;;;5087467;28;45139;-69
2022/09/08 01:39:02;;;;;;;1.42;1.00;;;25.40;53.60;;;;;;5087340;28;45336;-69
2022/09/08 01:41:29;;;;;;;1.02;0.98;;;25.40;53.50;;;;;;5087416;28;45317;-69
2022/09/08 01:43:56;;;;;;;1.13;1.00;;;25.40;53.50;;;;;;5087018;28;45306;-69
2022/09/08 01:46:24;;;;;;;1.20;1.10;;;25.40;53.60;;;;;;5087319;28;45239;-69
2022/09/08 01:48:51;;;;;;;1.77;1.10;;;25.30;53.70;;;;;;5087590;28;45189;-69
2022/09/08 01:51:18;;;;;;;1.45;1.08;;;25.30;53.50;;;;;;5087232;28;46620;-69
2022/09/08 01:53:45;;;;;;;1.60;1.17;;;25.30;53.60;;;;;;5087103;28;45337;-70
2022/09/08 01:56:12;;;;;;;1.15;1.00;;;25.30;53.50;;;;;;5087619;28;45234;-70
2022/09/08 01:58:39;;;;;;;1.25;1.00;;;25.30;53.80;;;;;;5087476;28;45269;-70
2022/09/08 02:01:05;;;;;;;0.82;0.82;;;25.30;53.60;;;;;;5087194;28;46381;-69
2022/09/08 02:03:34;;;;;;;1.15;1.08;;;25.30;53.50;;;;;;5087276;28;45367;-70
2022/09/08 02:06:02;;;;;;;1.05;1.02;;;25.30;53.70;;;;;;5087638;28;45316;-69
2022/09/08 02:08:29;;;;;;;1.23;1.13;;;25.30;53.70;;;;;;5087368;28;45244;-70
2022/09/08 02:10:57;;;;;;;0.80;0.80;;;25.30;53.90;;;;;;5087013;28;45391;-70
2022/09/08 02:13:24;;;;;;;0.90;0.90;;;25.30;53.70;;;;;;5087166;28;45294;-70
2022/09/08 02:15:51;;;;;;;1.30;0.90;;;25.30;53.70;;;;;;5087214;28;45312;-70
2022/09/08 02:18:18;;;;;;;0.70;0.70;;;25.30;53.60;;;;;;5087314;28;45215;-70
2022/09/08 02:20:46;;;;;;;1.00;0.90;;;25.20;53.50;;;;;;5087146;28;45371;-70
2022/09/08 02:23:13;;;;;;;1.38;1.00;;;25.20;53.70;;;;;;5086649;28;45303;-70
2022/09/08 02:25:40;;;;;;;0.80;0.80;;;25.20;53.60;;;;;;5086451;28;45302;-70
2022/09/08 02:28:07;;;;;;;1.00;1.00;;;25.20;53.70;;;;;;5087201;28;45373;-69
2022/09/08 02:30:33;;;;;;;1.02;0.90;;;25.20;53.50;;;;;;5086238;28;46367;-69
2022/09/08 02:33:00;;;;;;;1.48;0.90;;;25.20;53.60;;;;;;5085235;27;45237;-69
2022/09/08 02:35:27;;;;;;;1.05;1.00;;;25.20;53.80;;;;;;5086619;28;45325;-69
2022/09/08 02:37:55;;;;;;;0.85;0.85;;;25.20;53.70;;;;;;5086623;28;45296;-69
2022/09/08 02:40:22;;;;;;;0.80;0.80;;;25.20;53.60;;;;;;5086495;28;47657;-69
2022/09/08 02:42:49;;;;;;;1.92;1.10;;;25.10;53.50;;;;;;5086135;28;45259;-69
2022/09/08 02:45:16;;;;;;;0.90;0.90;;;25.10;53.60;;;;;;5086808;28;45198;-70
2022/09/08 02:47:43;;;;;;;1.23;1.00;;;25.10;53.60;;;;;;5086782;28;45449;-70
2022/09/08 02:50:10;;;;;;;0.80;0.80;;;25.10;53.60;;;;;;5086101;28;47287;-70
2022/09/08 02:52:37;;;;;;;0.70;0.70;;;25.10;53.60;;;;;;5086681;28;45276;-70
2022/09/08 02:55:06;;;;;;;0.98;0.88;;;25.10;53.80;;;;;;5086498;28;45268;-70
2022/09/08 02:57:33;;;;;;;1.42;0.98;;;25.10;53.70;;;;;;5086960;28;45360;-70
2022/09/08 02:59:59;;;;;;;1.10;0.60;;;25.10;53.70;;;;;;5086549;28;46600;-70
2022/09/08 03:02:26;;;;;;;1.00;0.98;;;25.10;53.60;;;;;;5086320;28;45301;-70
2022/09/08 03:04:53;;;;;;;0.90;0.90;;;25.10;53.60;;;;;;5086657;28;45241;-70
2022/09/08 03:07:20;;;;;;;2.80;1.13;;;25.10;53.50;;;;;;5086867;28;45336;-70
2022/09/08 03:09:47;;;;;;;0.88;0.88;;;25.10;54.00;;;;;;5085596;28;45384;-69
2022/09/08 03:12:15;;;;;;;0.80;0.80;;;25.00;53.40;;;;;;5086080;28;45296;-70
2022/09/08 03:14:42;;;;;;;1.27;0.90;;;25.00;53.50;;;;;;5086512;28;45229;-70
2022/09/08 03:17:09;;;;;;;0.70;0.70;;;25.00;53.70;;;;;;5086534;28;45505;-70
2022/09/08 03:19:36;;;;;;;0.82;0.82;;;25.00;53.60;;;;;;5086204;28;46780;-70
2022/09/08 03:22:03;;;;;;;0.70;0.70;;;25.00;53.60;;;;;;5086181;28;45304;-70
2022/09/08 03:24:32;;;;;;;1.70;1.05;;;25.00;53.50;;;;;;5086242;28;45370;-70
2022/09/08 03:27:00;;;;;;;2.53;0.80;;;25.00;53.60;;;;;;5086423;28;45397;-70
2022/09/08 03:29:29;;;;;;;0.73;0.73;;;25.00;53.60;;;;;;5086102;28;46332;-70
2022/09/08 03:31:57;;;;;;;0.60;0.60;;;25.00;53.50;;;;;;5086036;28;45344;-70
2022/09/08 03:34:24;;;;;;;0.90;0.90;;;25.00;53.50;;;;;;5086188;28;45230;-70
2022/09/08 03:36:51;;;;;;;1.33;0.77;;;24.90;53.70;;;;;;5086298;28;45388;-70
2022/09/08 03:39:18;;;;;;;1.30;0.88;;;25.00;53.70;;;;;;5085840;28;45438;-70
2022/09/08 03:41:44;;;;;;;0.90;0.90;;;25.00;53.70;;;;;;5085834;28;45323;-70
2022/09/08 03:44:11;;;;;;;0.63;0.63;;;24.90;53.70;;;;;;5086144;27;45240;-70
2022/09/08 03:46:39;;;;;;;0.77;0.77;;;24.90;53.50;;;;;;5089649;28;45401;-70
2022/09/08 03:49:06;;;;;;;0.70;0.68;;;24.90;53.60;;;;;;5089143;28;46334;-70
2022/09/08 03:51:33;;;;;;;0.70;0.70;;;24.90;53.60;;;;;;5089369;28;45307;-70
2022/09/08 03:56:41;;;;;;;0.70;0.70;;;24.90;53.60;;;;;;5068324;28;45298;-70
2022/09/08 03:59:08;;;;;;;0.93;0.80;;;24.90;53.60;;;;;;5068426;28;46653;-69
2022/09/08 04:01:35;;;;;;;1.83;1.02;;;24.90;53.60;;;;;;5068343;28;45284;-69
2022/09/08 04:04:04;;;;;;;0.63;0.63;;;24.90;53.60;;;;;;5069061;28;45240;-69
2022/09/08 04:06:31;;;;;;;0.80;0.80;;;24.80;53.60;;;;;;5069148;28;45173;-70
2022/09/08 04:08:57;;;;;;;0.60;0.60;;;24.80;53.40;;;;;;5074806;28;46450;-70
2022/09/08 04:11:24;;;;;;;0.70;0.70;;;24.80;53.50;;;;;;5089131;28;45353;-70
2022/09/08 04:13:51;;;;;;;1.27;0.77;;;24.80;53.40;;;;;;5089256;28;45449;-70
2022/09/08 04:16:18;;;;;;;1.65;0.77;;;24.80;53.60;;;;;;5089424;28;45263;-70
2022/09/08 04:18:45;;;;;;;0.70;0.70;;;24.80;53.60;;;;;;5088979;28;45480;-70
2022/09/08 04:21:13;;;;;;;0.90;0.70;;;24.80;53.60;;;;;;5088891;28;45206;-70
2022/09/08 04:23:40;;;;;;;1.27;0.70;;;24.70;53.50;;;;;;5088963;28;45304;-70
2022/09/08 04:26:08;;;;;;;1.05;0.77;;;24.70;53.50;;;;;;5089196;28;45369;-70
2022/09/08 04:28:35;;;;;;;0.77;0.77;;;24.70;53.40;;;;;;5088637;28;45204;-70
2022/09/08 04:31:03;;;;;;;1.17;0.70;;;24.70;53.50;;;;;;5088689;28;45462;-70
2022/09/08 04:33:31;;;;;;;0.70;0.70;;;24.70;53.50;;;;;;5088842;28;45323;-70
2022/09/08 04:35:58;;;;;;;0.68;0.68;;;24.70;54.10;;;;;;5089087;28;45523;-69
2022/09/08 04:38:26;;;;;;;0.77;0.77;;;24.70;53.40;;;;;;5088418;28;46338;-70
2022/09/08 04:40:53;;;;;;;0.57;0.57;;;24.70;53.50;;;;;;5088657;28;45218;-70
2022/09/08 04:43:20;;;;;;;0.63;0.63;;;24.70;53.50;;;;;;5088722;28;45257;-70
2022/09/08 04:45:47;;;;;;;0.77;0.77;;;24.70;53.50;;;;;;5088228;28;45276;-70
2022/09/08 04:48:14;;;;;;;0.80;0.80;;;24.70;53.50;;;;;;5088216;28;45519;-69
2022/09/08 04:50:41;;;;;;;0.68;0.68;;;24.70;53.40;;;;;;5088298;28;45240;-70
2022/09/08 04:53:07;;;;;;;0.70;0.70;;;24.70;53.40;;;;;;5088585;28;45221;-70
2022/09/08 04:55:38;;;;;;;0.65;0.60;;;24.70;53.40;;;;;;5088366;28;45236;-70
2022/09/08 04:58:05;;;;;;;0.55;0.55;;;24.70;53.40;;;;;;5087753;28;45419;-70
2022/09/08 05:00:33;;;;;;;0.70;0.70;;;24.60;53.30;;;;;;5088484;28;45198;-70
2022/09/08 05:03:00;;;;;;;0.60;0.60;;;24.60;53.40;;;;;;5088519;28;45442;-70
2022/09/08 05:05:26;;;;;;;0.70;0.70;;;24.60;53.40;;;;;;5088412;28;45284;-70
2022/09/08 05:07:53;;;;;;;0.70;0.70;;;24.60;53.40;;;;;;5088122;28;46651;-70
2022/09/08 05:10:20;;;;;;;0.80;0.70;;;24.60;53.30;;;;;;5088348;28;45241;-70
2022/09/08 05:12:49;;;;;;;0.65;0.65;;;24.60;53.30;;;;;;5088648;28;45137;-70
2022/09/08 05:15:16;;;;;;;0.52;0.52;;;24.60;53.40;;;;;;5088578;28;45415;-70
2022/09/08 05:17:42;;;;;;;0.80;0.73;;;24.60;53.30;;;;;;5088300;28;46800;-70
2022/09/08 05:20:10;;;;;;;1.30;0.70;;;24.60;53.40;;;;;;5088425;28;45300;-70
2022/09/08 05:22:37;;;;;;;0.60;0.60;;;24.50;53.30;;;;;;5088205;28;45260;-70
2022/09/08 05:25:04;;;;;;;0.60;0.60;;;24.50;53.40;;;;;;5088442;28;45464;-70
2022/09/08 05:27:31;;;;;;;0.65;0.65;;;24.50;53.40;;;;;;5087649;28;45359;-70
2022/09/08 05:29:59;;;;;;;0.63;0.63;;;24.50;53.30;;;;;;5087490;28;45314;-69
2022/09/08 05:32:26;;;;;;;0.57;0.57;;;24.50;53.20;;;;;;5087362;28;45386;-68
2022/09/08 05:34:53;;;;;;;0.82;0.80;;;24.50;53.30;;;;;;5087972;28;45241;-69
2022/09/08 05:37:20;;;;;;;0.80;0.80;;;24.50;53.30;;;;;;5087418;28;45419;-69
2022/09/08 05:39:47;;;;;;;0.55;0.55;;;24.50;53.20;;;;;;5086262;28;45444;-69
2022/09/08 05:42:14;;;;;;;0.75;0.75;;;24.50;53.30;;;;;;5086225;28;45321;-70
2022/09/08 05:44:41;;;;;;;0.75;0.70;;;24.50;53.20;;;;;;5087805;28;45486;-69
2022/09/08 05:47:09;;;;;;;0.50;0.50;;;24.40;53.40;;;;;;5087041;28;45446;-69
2022/09/08 05:49:36;;;;;;;0.73;0.70;;;24.40;53.50;;;;;;5087150;28;45388;-70
2022/09/08 05:52:03;;;;;;;0.88;0.70;;;24.40;53.60;;;;;;5087468;28;45367;-70
2022/09/08 05:54:31;;;;;;;0.77;0.77;;;24.40;53.50;;;;;;5087589;28;45368;-70
2022/09/08 05:56:58;;;;;;;0.80;0.80;;;24.40;53.50;;;;;;5087321;28;45304;-70
2022/09/08 05:59:24;;;;;;;0.90;0.80;;;24.40;53.40;;;;;;5087808;28;45572;-70
2022/09/08 06:01:51;;;;;;;1.70;0.70;;;24.40;53.30;;;;;;5087476;28;45317;-70
2022/09/08 06:04:20;;;;;;;2.05;0.82;;;24.40;53.40;;;;;;5087426;28;45303;-70
2022/09/08 06:06:47;;;;;;;1.50;1.10;;;24.40;53.40;;;;;;5087633;28;45414;-70
2022/09/08 06:09:13;;;;;;;1.55;1.45;;;24.40;53.30;;;;;;5087122;28;45219;-70
2022/09/08 06:11:40;;;;;;;1.38;1.00;;;24.40;53.30;;;;;;5087207;28;45372;-70
2022/09/08 06:14:07;;;;;;;0.70;0.70;;;24.30;53.20;;;;;;5087393;28;45404;-70
2022/09/08 06:16:34;;;;;;;0.98;0.90;;;24.30;53.20;;;;;;5086674;28;45409;-68
2022/09/08 06:19:02;;;;;;;1.00;0.95;;;24.30;53.20;;;;;;5086532;28;45225;-69
2022/09/08 06:21:31;;;;;;;0.82;0.80;;;24.30;53.20;;;;;;5087488;28;45194;-69
2022/09/08 06:23:58;;;;;;;4.90;1.00;;;24.30;53.70;;;;;;5087352;28;45306;-70
2022/09/08 06:26:45;;;;;;;0.70;0.70;;;24.30;53.20;;;;;;5086601;28;46317;-70
2022/09/08 06:29:14;;;;;;;1.52;1.17;;;24.30;53.20;;;;;;5086825;28;45245;-70
2022/09/08 06:31:42;;;;;;;1.35;0.90;;;24.30;53.10;;;;;;5087238;28;45304;-69
2022/09/08 06:34:13;;;;;;;1.77;0.90;;;24.30;53.10;;;;;;5087259;28;45242;-70
2022/09/08 06:36:44;;;;;;;1.13;1.00;;;24.30;53.70;;;;;;5086895;28;47390;-70
2022/09/08 06:39:14;;;;;;;1.10;0.88;;;24.30;53.10;;;;;;5086485;28;45233;-69
2022/09/08 06:41:43;;;;;;;1.05;1.05;;;24.30;53.10;;;;;;5086781;28;45212;-70
2022/09/08 06:44:12;;;;;;;1.42;1.10;;;24.30;53.70;;;;;;5086519;28;45308;-70
2022/09/08 06:46:39;;;;;;;2.08;1.10;;;24.30;53.30;;;;;;5086774;28;46333;-70
2022/09/08 06:49:06;;;;;;;1.40;1.20;;;24.30;53.30;;;;;;5086484;28;45326;-70
2022/09/08 06:51:36;;;;;;;1.77;1.40;;;24.30;53.30;;;;;;5086794;28;45384;-70
2022/09/08 06:54:13;;;;;;;1.85;1.48;;;24.30;53.40;;;;;;5086753;28;45176;-70
2022/09/08 06:56:47;;;;;;;1.55;1.45;;;24.30;53.60;;;;;;5086490;28;46464;-69
2022/09/08 06:59:19;;;;;;;2.20;1.60;;;24.30;53.50;;;;;;5086496;28;45273;-69
2022/09/08 07:01:50;;;;;;;2.25;1.80;;;24.30;53.50;;;;;;5086484;28;45275;-70
2022/09/08 07:04:26;;;;;;;2.90;1.45;;;24.30;53.60;;;;;;5086295;28;45233;-69
2022/09/08 07:06:55;;;;;;;5.90;1.73;;;24.30;53.60;;;;;;5086194;28;45225;-69
2022/09/08 07:09:27;;;;;;;2.25;1.50;;;24.30;53.70;;;;;;5085946;28;45190;-69
2022/09/08 07:12:05;;;;;;;2.60;1.65;;;24.30;53.70;;;;;;5086575;28;45344;-69
2022/09/08 07:14:50;;;;;;;3.22;1.50;;;24.30;53.70;;;;;;5086172;28;45244;-70
2022/09/08 07:17:20;;;;;;;2.65;1.80;;;24.30;53.70;;;;;;5086371;28;46793;-70
2022/09/08 07:19:49;;;;;;;3.78;1.65;;;24.30;53.80;;;;;;5087465;27;45400;-70
2022/09/08 07:22:21;;;;;;;1.58;1.45;;;24.30;53.70;;;;;;5090185;28;45476;-70
2022/09/08 07:24:50;;;;;;;3.25;1.42;;;24.30;53.90;;;;;;5089694;28;45297;-70
2022/09/08 07:27:17;;;;;;;2.15;1.50;;;24.30;53.90;;;;;;5089517;28;45247;-69
2022/09/08 07:29:45;;;;;;;2.35;1.67;;;24.30;53.90;;;;;;5089997;28;45253;-71
2022/09/08 07:32:14;;;;;;;2.97;1.80;;;24.30;53.80;;;;;;5089970;28;45300;-71
2022/09/08 07:34:46;;;;;;;2.95;1.50;;;24.30;53.80;;;;;;5090164;28;45402;-71
2022/09/08 07:37:16;;;;;;;2.67;1.25;;;24.30;53.70;;;;;;5089673;28;46732;-71
2022/09/08 07:39:47;;;;;;;1.85;1.55;;;24.20;53.60;;;;;;5089777;28;45231;-70
2022/09/08 07:42:16;;;;;;;3.72;1.80;;;24.20;53.60;;;;;;5089929;28;45337;-70
2022/09/08 07:44:43;;;;;;;2.80;1.60;;;24.20;53.60;;;;;;5089064;28;45259;-71
2022/09/08 07:47:30;;;;;;;4.00;1.80;;;24.20;53.60;;;;;;5089167;28;45219;-70
2022/09/08 07:50:00;;;;;;;7.20;2.47;;;24.20;53.50;;;;;;5086103;28;45284;-69
2022/09/08 07:52:30;;;;;;;2.90;1.95;;;24.20;53.50;;;;;;5089350;28;45235;-70
2022/09/08 07:55:07;;;;;;;3.13;1.90;;;24.20;53.40;;;;;;5088797;28;45230;-70
2022/09/08 07:57:41;;;;;;;2.85;1.88;;;24.20;53.40;;;;;;5088384;28;46424;-70
2022/09/08 08:00:12;;;;;;;3.42;1.83;;;24.20;53.40;;;;;;5088883;28;45230;-70
2022/09/08 08:03:07;;;;;;;3.60;1.90;;;24.20;53.30;;;;;;5089120;28;45258;-70
2022/09/08 08:05:36;;;;;;;2.90;2.00;;;24.20;53.30;;;;;;5089428;28;45345;-71
2022/09/08 08:08:10;;;;;;;2.47;1.80;;;24.30;53.30;;;;;;5088223;28;46608;-71
2022/09/08 08:10:39;;;;;;;2.50;1.90;;;24.30;53.20;;;;;;5088447;28;45372;-71
2022/09/08 08:13:11;;;;;;;2.17;1.98;;;24.30;53.10;;;;;;5089097;28;45290;-71
2022/09/08 08:15:40;;;;;;;3.90;1.92;;;24.30;53.00;;;;;;5089586;28;45313;-71
2022/09/08 08:18:09;;;;;;;4.30;1.90;;;24.30;53.00;;;;;;5088622;28;46334;-69
2022/09/08 08:20:41;;;;;;;3.33;1.75;;;24.30;52.90;;;;;;5088516;28;45159;-70
2022/09/08 08:23:21;;;;;;;3.30;2.00;;;24.30;52.90;;;;;;5088549;28;45285;-69
2022/09/08 08:25:50;;;;;;;3.42;2.20;;;24.30;52.80;;;;;;5088469;28;45285;-70
2022/09/08 08:28:19;;;;;;;3.83;2.10;;;24.30;52.80;;;;;;5088529;28;45321;-70
2022/09/08 08:30:51;;;;;;;5.38;1.92;;;24.40;52.80;;;;;;5088859;27;45757;-70
2022/09/08 08:33:20;;;;;;;3.90;1.90;;;24.40;52.80;;;;;;5088949;28;45259;-70
2022/09/08 08:35:48;;;;;;;1.85;1.75;;;24.40;52.80;;;;;;5089151;28;45319;-69
2022/09/08 08:38:17;;;;;;;3.67;1.92;;;24.40;52.70;;;;;;5088012;28;46335;-70
2022/09/08 08:40:56;;;;;;;2.33;1.70;;;24.40;52.80;;;;;;5087834;28;45327;-69
2022/09/08 08:44:05;;;;;;;2.15;1.92;;;24.40;52.80;;;;;;5088576;28;45337;-70
2022/09/08 08:47:15;;;;;;;4.30;2.15;;;24.40;52.80;;;;;;5051892;28;45355;-70
2022/09/08 08:50:03;;;;;;;2.63;2.10;;;24.40;52.80;;;;;;5025057;28;45323;-69
2022/09/08 08:52:39;;;;;;;4.07;2.40;;;24.40;52.80;;;;;;5066724;28;45407;-70
2022/09/08 08:55:15;;;;;;;3.22;2.08;;;24.40;52.80;;;;;;5088259;28;45250;-69
2022/09/08 08:57:50;;;;;;;3.63;1.95;;;24.40;52.80;;;;;;5088312;28;45318;-69
2022/09/08 09:00:20;;;;;;;2.50;2.30;;;24.40;52.70;;;;;;5088067;28;45281;-70
2022/09/08 09:03:12;;;;;;;2.67;2.15;;;24.40;52.70;;;;;;5087954;28;45414;-70
2022/09/08 09:05:48;;;;;;;4.05;1.88;;;24.50;52.70;;;;;;5088192;28;45181;-69
2022/09/08 09:08:40;;;;;;;2.97;2.28;;;24.50;52.70;;;;;;5087970;28;45282;-70
2022/09/08 09:11:34;;;;;;;2.28;2.00;;;24.50;52.60;;;;;;5087888;28;47753;-70
2022/09/08 09:14:29;;;;;;;2.75;1.83;;;24.50;53.20;;;;;;5087909;28;45325;-69
2022/09/08 09:17:05;;;;;;;2.28;2.08;;;24.50;52.60;;;;;;5073287;28;45400;-69
2022/09/08 09:20:11;;;;;;;2.78;2.30;;;24.50;52.60;;;;;;5088430;28;45333;-70
2022/09/08 09:22:41;;;;;;;3.85;2.40;;;24.60;52.60;;;;;;5081457;28;45416;-69
2022/09/08 09:25:13;;;;;;;2.33;2.10;;;24.60;52.50;;;;;;5087650;28;45369;-70
2022/09/08 09:27:43;;;;;;;3.55;2.22;;;24.60;52.50;;;;;;5087799;28;45344;-69
2022/09/08 09:30:25;;;;;;;2.13;1.92;;;24.60;53.00;;;;;;5087819;28;45360;-69
2022/09/08 09:33:37;;;;;;;3.80;1.88;;;24.60;52.40;;;;;;5084940;28;45481;-69
2022/09/08 09:36:14;;;;;;;1.90;1.80;;;24.70;52.50;;;;;;5005149;28;45580;-70
2022/09/08 09:39:03;;;;;;;1.80;1.70;;;24.60;52.50;;;;;;5004568;28;45568;-69
2022/09/08 09:41:42;;;;;;;1.77;1.60;;;24.70;52.50;;;;;;5066129;28;45536;-70
2022/09/08 09:44:28;;;;;;;2.20;1.65;;;24.70;52.40;;;;;;5086740;28;45472;-70
2022/09/08 09:47:17;;;;;;;1.52;1.42;;;24.70;52.40;;;;;;5087343;28;45154;-70
2022/09/08 09:50:17;;;;;;;2.50;1.48;;;24.80;52.40;;;;;;5073782;28;45536;-70
2022/09/08 09:52:47;;;;;;;1.42;1.33;;;24.80;52.40;;;;;;5082630;28;45197;-70
2022/09/08 09:55:23;;;;;;;1.70;1.55;;;24.80;52.50;;;;;;5087246;28;45349;-70
2022/09/08 09:58:09;;;;;;;1.35;1.25;;;24.90;52.50;;;;;;5087443;28;45321;-70
2022/09/08 10:00:44;;;;;;;1.50;1.40;;;24.90;52.20;;;;;;5083954;28;45487;-70
2022/09/08 10:03:38;;;;;;;1.40;1.30;;;24.90;52.20;;;;;;5087853;28;45381;-69
2022/09/08 10:06:25;;;;;;;2.33;1.60;;;24.90;52.20;;;;;;5083882;28;46822;-70
2022/09/08 10:09:25;;;;;;;1.13;1.05;;;25.00;52.10;;;;;;5072218;28;45262;-69
2022/09/08 10:12:30;;;;;;;1.30;1.20;;;25.00;52.00;;;;;;5087157;28;45143;-69
2022/09/08 10:15:30;;;;;;;1.10;1.00;;;25.10;51.90;;;;;;5087130;28;45186;-69
2022/09/08 10:19:00;;;;;;;3.53;1.30;;;25.10;51.80;;;;;;5086714;28;45581;-69
2022/09/08 10:21:57;;;;;;;2.03;1.10;;;25.20;51.90;;;;;;5086897;28;45240;-69
2022/09/08 10:24:59;;;;;;;1.90;1.00;;;25.20;51.80;;;;;;5086817;28;45246;-70
2022/09/08 10:28:01;;;;;;;1.20;0.90;;;25.30;52.10;;;;;;5086662;28;45218;-70
2022/09/08 10:31:01;;;;;;;1.65;1.00;;;25.30;52.00;;;;;;5042938;28;46636;-70
2022/09/08 10:33:55;;;;;;;2.13;1.17;;;25.30;51.80;;;;;;5079958;28;45356;-70
2022/09/08 10:36:22;;;;;;;1.30;0.93;;;25.40;51.90;;;;;;5086875;28;45211;-69
2022/09/08 10:39:01;;;;;;;0.98;0.95;;;25.40;51.70;;;;;;5086817;28;45387;-69
2022/09/08 10:41:57;;;;;;;2.42;1.00;;;25.50;51.70;;;;;;5086557;28;46515;-70
2022/09/08 10:44:36;;;;;;;2.90;0.90;;;25.50;51.70;;;;;;5086456;28;45255;-69
2022/09/08 10:47:17;;;;;;;2.63;1.10;;;25.60;51.50;;;;;;5086197;28;45328;-69
2022/09/08 10:50:06;;;;;;;1.40;0.80;;;25.60;51.60;;;;;;5084640;28;45331;-69
2022/09/08 10:52:34;;;;;;;1.27;0.93;;;25.70;51.00;;;;;;5074105;28;45553;-69
2022/09/08 10:55:28;;;;;;;2.13;0.90;;;25.60;51.60;;;;;;5085289;28;45257;-69
2022/09/08 10:58:15;;;;;;;1.02;0.73;;;25.60;51.60;;;;;;5086162;28;45430;-69
2022/09/08 11:00:44;;;;;;;1.73;1.00;;;25.60;51.70;;;;;;5083114;28;45452;-69
2022/09/08 11:03:26;;;;;;;1.30;0.88;;;25.60;51.70;;;;;;5085675;28;45233;-69
2022/09/08 11:05:54;;;;;;;3.15;1.13;;;25.70;51.70;;;;;;5086042;28;45302;-69
2022/09/08 11:09:06;;;;;;;1.98;0.90;;;25.70;51.60;;;;;;5085921;28;45186;-69
2022/09/08 11:12:08;;;;;;;1.27;0.80;;;25.80;51.60;;;;;;5038080;28;45223;-69
2022/09/08 11:14:58;;;;;;;0.68;0.68;;;25.90;51.50;;;;;;5087108;28;45485;-70
2022/09/08 11:17:26;;;;;;;1.55;1.02;;;26.00;51.30;;;;;;5086552;28;45221;-69
2022/09/08 11:19:55;;;;;;;2.10;0.90;;;26.00;51.70;;;;;;5086147;28;45200;-69
2022/09/08 11:22:44;;;;;;;4.20;1.02;;;26.10;51.20;;;;;;5093908;28;45321;-70
2022/09/08 11:25:27;;;;;;;1.77;1.17;;;26.20;51.20;;;;;;5087115;28;45220;-69
2022/09/08 11:28:00;;;;;;;1.63;0.82;;;26.20;51.00;;;;;;5089911;28;45185;-69
2022/09/08 11:30:31;;;;;;;1.55;0.90;;;26.20;50.80;;;;;;5086034;28;45284;-69
2022/09/08 11:33:03;;;;;;;1.05;0.93;;;26.10;51.40;;;;;;5096349;27;45403;-69
2022/09/08 11:35:43;;;;;;;1.92;0.82;;;26.00;50.60;;;;;;5093230;27;45472;-70
2022/09/08 11:38:41;;;;;;;3.10;0.90;;;26.00;48.90;;;;;;5102704;27;45554;-69
2022/09/08 11:41:24;;;;;;;3.13;1.00;;;26.00;48.30;;;;;;5102127;27;45481;-69
2022/09/08 11:44:17;;;;;;;2.70;0.85;;;25.80;47.10;;;;;;5103058;27;45504;-69
2022/09/08 11:47:16;;;;;;;2.45;1.13;;;25.70;47.60;;;;;;5087130;27;46372;-69
2022/09/08 11:50:13;;;;;;;2.47;0.85;;;25.60;47.40;;;;;;5088827;27;45558;-70
2022/09/08 11:52:49;;;;;;;3.35;0.95;;;25.60;47.10;;;;;;5087705;27;45542;-69
2022/09/08 11:55:27;;;;;;;2.83;0.75;;;25.60;46.70;;;;;;5092562;27;45550;-69
2022/09/08 11:58:06;;;;;;;1.67;0.90;;;25.70;46.50;;;;;;5091307;27;46391;-69
2022/09/08 12:00:50;;;;;;;4.60;1.08;;;25.90;46.80;;;;;;5092980;27;45505;-69
2022/09/08 12:03:37;;;;;;;2.67;0.90;;;26.00;46.90;;;;;;5094176;27;45472;-69
2022/09/08 12:06:38;;;;;;;4.00;0.63;;;26.10;46.30;;;;;;5094056;27;45467;-69
2022/09/08 12:09:23;;;;;;;5.90;1.20;;;26.10;46.30;;;;;;5095231;27;46902;-69
2022/09/08 12:12:09;;;;;;;8.25;6.18;;;26.00;44.90;;;;;;5078212;27;45584;-69
2022/09/08 12:14:41;;;;;;;9.63;7.15;;;26.00;44.60;;;;;;5091822;27;45599;-69
2022/09/08 12:17:14;;;;;;;7.65;5.88;;;26.00;44.80;;;;;;5097805;27;45464;-69
2022/09/08 12:19:46;;;;;;;4.38;3.30;;;26.10;45.30;;;;;;5098923;27;46638;-70
2022/09/08 12:22:20;;;;;;;4.20;2.30;;;26.10;44.90;;;;;;5096922;27;45356;-69
2022/09/08 12:24:56;;;;;;;4.45;1.48;;;26.10;45.00;;;;;;5095460;27;45291;-69
2022/09/08 12:27:36;;;;;;;1.33;1.08;;;26.00;44.60;;;;;;5093633;27;45384;-69
2022/09/08 12:30:08;;;;;;;3.63;1.33;;;26.00;44.30;;;;;;5094827;27;47099;-69
2022/09/08 12:32:51;;;;;;;1.35;0.98;;;25.90;44.20;;;;;;5096403;27;45787;-69
2022/09/08 12:35:28;;;;;;;1.88;1.05;;;26.00;44.40;;;;;;5094289;27;45490;-69
2022/09/08 12:37:58;;;;;;;1.33;0.80;;;26.00;43.90;;;;;;5095850;27;45905;-69
2022/09/08 12:40:58;;;;;;;4.35;0.93;;;26.00;44.50;;;;;;5094940;27;46328;-69
2022/09/08 12:43:25;;;;;;;4.60;1.05;;;26.10;44.50;;;;;;5093350;27;45331;-69
2022/09/08 12:46:08;;;;;;;3.55;1.00;;;26.10;43.00;;;;;;5085259;28;45538;-69
2022/09/08 12:48:40;;;;;;;4.60;0.90;;;26.10;43.80;;;;;;5093188;27;45417;-69
2022/09/08 12:51:10;;;;;;;2.00;0.98;;;26.20;43.50;;;;;;5094062;27;46406;-69
2022/09/08 12:53:59;;;;;;;3.53;1.15;;;26.30;43.30;;;;;;5093856;27;45523;-69
2022/09/08 12:56:31;;;;;;;5.28;1.33;;;26.40;42.80;;;;;;5094926;27;45486;-69
2022/09/08 12:59:03;;;;;;;2.33;1.00;;;26.50;43.20;;;;;;5092013;27;45230;-69
2022/09/08 13:01:34;;;;;;;0.98;0.70;;;26.50;42.80;;;;;;5092607;27;46623;-69
2022/09/08 13:04:17;;;;;;;2.35;1.00;;;26.40;42.70;;;;;;5092982;27;45444;-70
2022/09/08 13:06:51;;;;;;;0.98;0.88;;;26.30;42.00;;;;;;5094957;27;45415;-70
2022/09/08 13:09:23;;;;;;;1.15;0.77;;;26.20;42.70;;;;;;5093955;27;45630;-69
2022/09/08 13:12:18;;;;;;;1.77;0.98;;;26.20;42.80;;;;;;5087179;27;46462;-70
2022/09/08 13:14:54;;;;;;;1.70;0.90;;;26.10;42.60;;;;;;5091356;27;45379;-69
2022/09/08 13:17:24;;;;;;;2.20;0.80;;;26.00;42.00;;;;;;5083935;27;46733;-69
2022/09/08 13:20:05;;;;;;;2.13;0.90;;;26.00;42.30;;;;;;5092748;27;45488;-69
2022/09/08 13:22:35;;;;;;;4.07;1.05;;;26.20;42.00;;;;;;5091097;27;46619;-69
2022/09/08 13:25:08;;;;;;;4.25;0.95;;;26.30;42.00;;;;;;5090279;27;45509;-69
2022/09/08 13:27:39;;;;;;;5.28;1.27;;;26.50;42.00;;;;;;5088562;27;45562;-69
2022/09/08 13:30:09;;;;;;;2.22;1.05;;;26.60;41.90;;;;;;5092183;27;45428;-69